Buoy 46612

sailwx.info

Track history (hours):
 
Tides and Currents Weather Stations Pressure Air Temp Water Temp Dewpoint Dewpoint Depression Visibility Wind Speed Wind Dir Waves Ship Positions

Drifting buoy 46612

Last reported at 2016-Dec-08 04:00 UTC. Time now 2016-Dec-08 06:06 UTC.
Position N 26°13' W 131°47'.

Water temperature 20.9 ° C

Date/timePositionNaut miles runAvg speedWind from/ knotsBaromVisibWave heightAir tempDewpointWater temp
2016-Dec-08 04:00N 26°13' W 131°47'1 1.2 20.9
2016-Dec-08 03:00N 26°14' W 131°47'1 0.5 21.0
2016-Dec-08 02:00N 26°14' W 131°47'1 0.6 21.1
2016-Dec-08 01:00N 26°14' W 131°47'0 0.0 21.1
2016-Dec-08 00:00N 26°14' W 131°47'1 0.5 21.2
2016-Dec-07 23:00N 26°14' W 131°46'0 0.0 21.3
2016-Dec-07 22:00N 26°14' W 131°46'0 0.0 21.6
2016-Dec-07 21:00N 26°14' W 131°46'1 1.3 21.6
2016-Dec-07 20:00N 26°16' W 131°47'0 0.0 21.0
2016-Dec-07 19:00N 26°16' W 131°47'0 0.0 21.0
2016-Dec-07 18:00N 26°16' W 131°47'0 0.0 20.9
2016-Dec-07 17:00N 26°16' W 131°47'0 0.0 20.8
2016-Dec-07 16:00N 26°16' W 131°47'1 0.6 20.9
2016-Dec-07 15:00N 26°15' W 131°47'1 0.8 20.9
2016-Dec-07 14:00N 26°16' W 131°46'0 0.0 20.9
2016-Dec-07 13:00N 26°16' W 131°46'1 0.1 20.9
2016-Dec-07 07:00N 26°16' W 131°46'1 0.6 20.9
2016-Dec-07 06:00N 26°16' W 131°46'2 0.2 20.9
2016-Dec-06 23:00N 26°17' W 131°44'0 0.0 20.9
2016-Dec-06 22:00N 26°17' W 131°44'0 0.0 20.9
2016-Dec-06 21:00N 26°17' W 131°44'1 0.4 20.9
2016-Dec-06 19:00N 26°18' W 131°45'0 0.0 20.9
2016-Dec-06 18:00N 26°18' W 131°45'0 0.0 20.9
2016-Dec-06 16:00N 26°18' W 131°45'1 0.6 20.9
2016-Dec-06 15:00N 26°19' W 131°45'2 1.7 20.9
2016-Dec-06 14:00N 26°19' W 131°43'0 0.0 20.9
2016-Dec-06 13:00N 26°19' W 131°43'1 0.5 20.9
2016-Dec-06 12:00N 26°19' W 131°44'1 0.5 20.9
2016-Dec-06 11:00N 26°19' W 131°43'1 0.2 20.9
2016-Dec-06 05:00N 26°20' W 131°43'1 0.3 20.9
2016-Dec-06 01:00N 26°21' W 131°42'0 0.0 20.9
2016-Dec-06 00:00N 26°21' W 131°42'1 0.5 20.9
2016-Dec-05 23:00N 26°21' W 131°43'0 0.0 20.9
2016-Dec-05 22:00N 26°21' W 131°43'0 0.0 20.9
2016-Dec-05 21:00N 26°21' W 131°43'1 0.3 20.9
2016-Dec-05 19:00N 26°21' W 131°42'0 0.0 20.9
2016-Dec-05 18:00N 26°21' W 131°42'0 0.0 20.9
2016-Dec-05 17:00N 26°21' W 131°42'1 0.6 20.9
2016-Dec-05 16:00N 26°22' W 131°42'0 0.0 20.9
2016-Dec-05 15:00N 26°22' W 131°42'0 0.0 20.9
2016-Dec-05 14:00N 26°22' W 131°42'0 0.0 20.9
2016-Dec-05 13:00N 26°22' W 131°42'0 0.0 20.9
2016-Dec-05 12:00N 26°22' W 131°42'0 0.0 20.9
2016-Dec-05 11:00N 26°22' W 131°42'0 0.0 20.9
2016-Dec-05 07:00N 26°22' W 131°42'0 0.0 20.9
2016-Dec-05 06:00N 26°22' W 131°42'0 0.0 20.9
2016-Dec-05 05:00N 26°22' W 131°42'0 0.0 20.9
2016-Dec-05 03:00N 26°22' W 131°42'1 0.4 20.9
2016-Dec-05 00:00N 26°22' W 131°41'1 0.5 20.9
2016-Dec-04 23:00N 26°22' W 131°41'1 0.3 20.9
2016-Dec-04 21:00N 26°22' W 131°41'0 0.0 20.9
2016-Dec-04 19:00N 26°22' W 131°41'0 0.0 20.9
2016-Dec-04 18:00N 26°22' W 131°41'0 0.0 20.9
2016-Dec-04 17:00N 26°22' W 131°41'1 0.5 20.9
2016-Dec-04 16:00N 26°22' W 131°40'0 0.0 20.9
2016-Dec-04 15:00N 26°22' W 131°40'0 0.0 20.9
2016-Dec-04 14:00N 26°22' W 131°40'0 0.0 20.9
2016-Dec-04 13:00N 26°22' W 131°40'1 0.3 20.9
2016-Dec-04 11:00N 26°23' W 131°40'1 0.3 20.9
2016-Dec-04 07:00N 26°22' W 131°40'1 0.6 20.9
2016-Dec-04 05:00N 26°22' W 131°39'1 0.3 20.9
2016-Dec-04 03:00N 26°22' W 131°38'1 0.7 20.9
2016-Dec-04 01:00N 26°23' W 131°38'1 0.5 20.9
2016-Dec-04 00:00N 26°23' W 131°38'0 0.0 20.9
2016-Dec-03 23:00N 26°23' W 131°38'0 0.0 20.9
2016-Dec-03 22:00N 26°23' W 131°38'0 0.0 20.9
2016-Dec-03 21:00N 26°23' W 131°38'1 0.3 20.9
2016-Dec-03 19:00N 26°23' W 131°38'1 0.2 20.9
2016-Dec-03 15:00N 26°23' W 131°37'1 0.8 20.9
2016-Dec-03 14:00N 26°23' W 131°38'1 1.1 20.9
2016-Dec-03 13:00N 26°23' W 131°37'1 0.1 20.9
2016-Dec-03 06:00N 26°24' W 131°36'0 0.0 20.9
2016-Dec-03 05:00N 26°24' W 131°36'1 0.5 20.9
2016-Dec-03 04:00N 26°24' W 131°35'0 0.0 20.9
2016-Dec-03 03:00N 26°24' W 131°35'1 0.3 20.9
2016-Dec-03 01:00N 26°24' W 131°35'0 0.0 21.0
2016-Dec-03 00:00N 26°24' W 131°35'1 0.6 21.0
2016-Dec-02 23:00N 26°25' W 131°35'1 0.2 21.0
2016-Dec-02 18:00N 26°24' W 131°34'0 0.0 21.0
2016-Dec-02 17:00N 26°24' W 131°34'1 0.6 21.0
2016-Dec-02 16:00N 26°23' W 131°34'1 0.8 21.0
2016-Dec-02 15:00N 26°24' W 131°33'0 0.0 21.0
2016-Dec-02 14:00N 26°24' W 131°33'1 0.5 21.0
2016-Dec-02 13:00N 26°24' W 131°32'1 0.5 21.0
2016-Dec-02 12:00N 26°24' W 131°32'1 0.2 21.0
2016-Dec-02 06:00N 26°25' W 131°31'0 0.0 21.0
2016-Dec-02 05:00N 26°25' W 131°31'0 0.0 21.0
2016-Dec-02 03:00N 26°25' W 131°31'1 1.3 20.9
2016-Dec-02 02:00N 26°26' W 131°31'0 0.0 20.9
2016-Dec-02 00:00N 26°26' W 131°31'1 0.5 20.9
2016-Dec-01 23:00N 26°26' W 131°30'1 1.2 20.9
2016-Dec-01 22:00N 26°28' W 131°30'0 0.0 20.9
2016-Dec-01 19:00N 26°28' W 131°30'1 0.6 20.9
2016-Dec-01 18:00N 26°27' W 131°30'0 0.0 21.0
2016-Dec-01 17:00N 26°27' W 131°30'0 0.0 20.9
2016-Dec-01 16:00N 26°27' W 131°30'1 0.4 21.0
2016-Dec-01 14:00N 26°28' W 131°29'0 0.0 20.9
2016-Dec-01 13:00N 26°28' W 131°29'1 0.8 21.0
2016-Dec-01 12:00N 26°28' W 131°29'2 0.3 21.0
2016-Dec-01 05:00N 26°30' W 131°30'0 0.0 21.0
2016-Dec-01 04:00N 26°30' W 131°30'1 0.4 21.0
2016-Dec-01 01:00N 26°30' W 131°29'0 0.0 21.1
2016-Dec-01 00:00N 26°30' W 131°29'1 0.8 21.1
2016-Nov-30 23:00N 26°31' W 131°28'1 0.6 21.1
2016-Nov-30 22:00N 26°31' W 131°28'1 0.1 21.1
2016-Nov-30 17:00N 26°31' W 131°28'1 0.7 21.0
2016-Nov-30 15:00N 26°32' W 131°28'0 0.0 21.1
2016-Nov-30 14:00N 26°32' W 131°28'1 0.6 21.1
2016-Nov-30 13:00N 26°31' W 131°28'1 0.6 21.1
2016-Nov-30 12:00N 26°32' W 131°28'1 0.2 21.1
2016-Nov-30 06:00N 26°33' W 131°27'1 0.6 21.1
2016-Nov-30 05:00N 26°32' W 131°27'0 0.0 21.1
2016-Nov-30 02:00N 26°32' W 131°27'0 0.0 21.1
2016-Nov-30 01:00N 26°32' W 131°27'0 0.0 21.1
2016-Nov-30 00:00N 26°32' W 131°27'1 0.6 21.1
2016-Nov-29 22:00N 26°33' W 131°26'1 0.3 21.1
2016-Nov-29 19:00N 26°34' W 131°26'0 0.0 21.1
2016-Nov-29 18:00N 26°34' W 131°26'0 0.0 21.1
2016-Nov-29 17:00N 26°34' W 131°26'1 0.5 21.1
2016-Nov-29 16:00N 26°34' W 131°26'1 0.8 21.1
2016-Nov-29 15:00N 26°34' W 131°26'1 0.6 21.1
2016-Nov-29 14:00N 26°34' W 131°26'0 0.0 21.1
2016-Nov-29 13:00N 26°34' W 131°26'1 1.2 21.1
2016-Nov-29 12:00N 26°34' W 131°28'1 0.2 21.1
2016-Nov-29 07:00N 26°35' W 131°26'0 0.0 21.1
2016-Nov-29 06:00N 26°35' W 131°26'1 0.8 21.1
2016-Nov-29 05:00N 26°34' W 131°26'1 0.5 21.1
2016-Nov-29 04:00N 26°34' W 131°26'1 0.4 21.1
2016-Nov-29 01:00N 26°35' W 131°25'1 0.8 21.1
2016-Nov-29 00:00N 26°34' W 131°26'0 0.0 21.1
2016-Nov-28 23:00N 26°34' W 131°26'2 1.2 21.1
2016-Nov-28 21:00N 26°36' W 131°24'0 0.0 21.1
2016-Nov-28 19:00N 26°36' W 131°24'0 0.0 21.1
2016-Nov-28 18:00N 26°36' W 131°24'0 0.0 21.1
2016-Nov-28 17:00N 26°36' W 131°24'0 0.0 21.1
2016-Nov-28 16:00N 26°36' W 131°24'0 0.0 21.1
2016-Nov-28 15:00N 26°36' W 131°24'0 0.0 21.1
2016-Nov-28 14:00N 26°36' W 131°24'0 0.0 21.1
2016-Nov-28 13:00N 26°36' W 131°24'0 0.0 21.1
2016-Nov-28 09:00N 26°36' W 131°24'0 0.0 21.1
2016-Nov-28 06:00N 26°36' W 131°24'0 0.0 21.1
2016-Nov-28 04:00N 26°36' W 131°24'   21.1
Track history (hours):
 
Tides and Currents Weather Stations Pressure Air Temp Water Temp Dewpoint Dewpoint Depression Visibility Wind Speed Wind Dir Waves Ship Positions

Drifting buoy 46612

Last reported at 2016-Dec-08 04:00 UTC. Time now 2016-Dec-08 06:06 UTC.
Position N 26°13' W 131°47'.

Water temperature 20.9 ° C

Date/timePositionNaut miles runAvg speedWind from/ knotsBaromVisibWave heightAir tempDewpointWater temp
2016-Dec-08 04:00N 26°13' W 131°47'1 1.2 20.9
2016-Dec-08 03:00N 26°14' W 131°47'1 0.5 21.0
2016-Dec-08 02:00N 26°14' W 131°47'1 0.6 21.1
2016-Dec-08 01:00N 26°14' W 131°47'0 0.0 21.1
2016-Dec-08 00:00N 26°14' W 131°47'1 0.5 21.2
2016-Dec-07 23:00N 26°14' W 131°46'0 0.0 21.3
2016-Dec-07 22:00N 26°14' W 131°46'0 0.0 21.6
2016-Dec-07 21:00N 26°14' W 131°46'1 1.3 21.6
2016-Dec-07 20:00N 26°16' W 131°47'0 0.0 21.0
2016-Dec-07 19:00N 26°16' W 131°47'0 0.0 21.0
2016-Dec-07 18:00N 26°16' W 131°47'0 0.0 20.9
2016-Dec-07 17:00N 26°16' W 131°47'0 0.0 20.8
2016-Dec-07 16:00N 26°16' W 131°47'1 0.6 20.9
2016-Dec-07 15:00N 26°15' W 131°47'1 0.8 20.9
2016-Dec-07 14:00N 26°16' W 131°46'0 0.0 20.9
2016-Dec-07 13:00N 26°16' W 131°46'1 0.1 20.9
2016-Dec-07 07:00N 26°16' W 131°46'1 0.6 20.9
2016-Dec-07 06:00N 26°16' W 131°46'2 0.2 20.9
2016-Dec-06 23:00N 26°17' W 131°44'0 0.0 20.9
2016-Dec-06 22:00N 26°17' W 131°44'0 0.0 20.9
2016-Dec-06 21:00N 26°17' W 131°44'1 0.4 20.9
2016-Dec-06 19:00N 26°18' W 131°45'0 0.0 20.9
2016-Dec-06 18:00N 26°18' W 131°45'0 0.0 20.9
2016-Dec-06 16:00N 26°18' W 131°45'1 0.6 20.9
2016-Dec-06 15:00N 26°19' W 131°45'2 1.7 20.9
2016-Dec-06 14:00N 26°19' W 131°43'0 0.0 20.9
2016-Dec-06 13:00N 26°19' W 131°43'1 0.5 20.9
2016-Dec-06 12:00N 26°19' W 131°44'1 0.5 20.9
2016-Dec-06 11:00N 26°19' W 131°43'1 0.2 20.9
2016-Dec-06 05:00N 26°20' W 131°43'1 0.3 20.9
2016-Dec-06 01:00N 26°21' W 131°42'0 0.0 20.9
2016-Dec-06 00:00N 26°21' W 131°42'1 0.5 20.9
2016-Dec-05 23:00N 26°21' W 131°43'0 0.0 20.9
2016-Dec-05 22:00N 26°21' W 131°43'0 0.0 20.9
2016-Dec-05 21:00N 26°21' W 131°43'1 0.3 20.9
2016-Dec-05 19:00N 26°21' W 131°42'0 0.0 20.9
2016-Dec-05 18:00N 26°21' W 131°42'0 0.0 20.9
2016-Dec-05 17:00N 26°21' W 131°42'1 0.6 20.9
2016-Dec-05 16:00N 26°22' W 131°42'0 0.0 20.9
2016-Dec-05 15:00N 26°22' W 131°42'0 0.0 20.9
2016-Dec-05 14:00N 26°22' W 131°42'0 0.0 20.9
2016-Dec-05 13:00N 26°22' W 131°42'0 0.0 20.9
2016-Dec-05 12:00N 26°22' W 131°42'0 0.0 20.9
2016-Dec-05 11:00N 26°22' W 131°42'0 0.0 20.9
2016-Dec-05 07:00N 26°22' W 131°42'0 0.0 20.9
2016-Dec-05 06:00N 26°22' W 131°42'0 0.0 20.9
2016-Dec-05 05:00N 26°22' W 131°42'0 0.0 20.9
2016-Dec-05 03:00N 26°22' W 131°42'1 0.4 20.9
2016-Dec-05 00:00N 26°22' W 131°41'1 0.5 20.9
2016-Dec-04 23:00N 26°22' W 131°41'1 0.3 20.9
2016-Dec-04 21:00N 26°22' W 131°41'0 0.0 20.9
2016-Dec-04 19:00N 26°22' W 131°41'0 0.0 20.9
2016-Dec-04 18:00N 26°22' W 131°41'0 0.0 20.9
2016-Dec-04 17:00N 26°22' W 131°41'1 0.5 20.9
2016-Dec-04 16:00N 26°22' W 131°40'0 0.0 20.9
2016-Dec-04 15:00N 26°22' W 131°40'0 0.0 20.9
2016-Dec-04 14:00N 26°22' W 131°40'0 0.0 20.9
2016-Dec-04 13:00N 26°22' W 131°40'1 0.3 20.9
2016-Dec-04 11:00N 26°23' W 131°40'1 0.3 20.9
2016-Dec-04 07:00N 26°22' W 131°40'1 0.6 20.9
2016-Dec-04 05:00N 26°22' W 131°39'1 0.3 20.9
2016-Dec-04 03:00N 26°22' W 131°38'1 0.7 20.9
2016-Dec-04 01:00N 26°23' W 131°38'1 0.5 20.9
2016-Dec-04 00:00N 26°23' W 131°38'0 0.0 20.9
2016-Dec-03 23:00N 26°23' W 131°38'0 0.0 20.9
2016-Dec-03 22:00N 26°23' W 131°38'0 0.0 20.9
2016-Dec-03 21:00N 26°23' W 131°38'1 0.3 20.9
2016-Dec-03 19:00N 26°23' W 131°38'1 0.2 20.9
2016-Dec-03 15:00N 26°23' W 131°37'1 0.8 20.9
2016-Dec-03 14:00N 26°23' W 131°38'1 1.1 20.9
2016-Dec-03 13:00N 26°23' W 131°37'1 0.1 20.9
2016-Dec-03 06:00N 26°24' W 131°36'0 0.0 20.9
2016-Dec-03 05:00N 26°24' W 131°36'1 0.5 20.9
2016-Dec-03 04:00N 26°24' W 131°35'0 0.0 20.9
2016-Dec-03 03:00N 26°24' W 131°35'1 0.3 20.9
2016-Dec-03 01:00N 26°24' W 131°35'0 0.0 21.0
2016-Dec-03 00:00N 26°24' W 131°35'1 0.6 21.0
2016-Dec-02 23:00N 26°25' W 131°35'1 0.2 21.0
2016-Dec-02 18:00N 26°24' W 131°34'0 0.0 21.0
2016-Dec-02 17:00N 26°24' W 131°34'1 0.6 21.0
2016-Dec-02 16:00N 26°23' W 131°34'1 0.8 21.0
2016-Dec-02 15:00N 26°24' W 131°33'0 0.0 21.0
2016-Dec-02 14:00N 26°24' W 131°33'1 0.5 21.0
2016-Dec-02 13:00N 26°24' W 131°32'1 0.5 21.0
2016-Dec-02 12:00N 26°24' W 131°32'1 0.2 21.0
2016-Dec-02 06:00N 26°25' W 131°31'0 0.0 21.0
2016-Dec-02 05:00N 26°25' W 131°31'0 0.0 21.0
2016-Dec-02 03:00N 26°25' W 131°31'1 1.3 20.9
2016-Dec-02 02:00N 26°26' W 131°31'0 0.0 20.9
2016-Dec-02 00:00N 26°26' W 131°31'1 0.5 20.9
2016-Dec-01 23:00N 26°26' W 131°30'1 1.2 20.9
2016-Dec-01 22:00N 26°28' W 131°30'0 0.0 20.9
2016-Dec-01 19:00N 26°28' W 131°30'1 0.6 20.9
2016-Dec-01 18:00N 26°27' W 131°30'0 0.0 21.0
2016-Dec-01 17:00N 26°27' W 131°30'0 0.0 20.9
2016-Dec-01 16:00N 26°27' W 131°30'1 0.4 21.0
2016-Dec-01 14:00N 26°28' W 131°29'0 0.0 20.9
2016-Dec-01 13:00N 26°28' W 131°29'1 0.8 21.0
2016-Dec-01 12:00N 26°28' W 131°29'2 0.3 21.0
2016-Dec-01 05:00N 26°30' W 131°30'0 0.0 21.0
2016-Dec-01 04:00N 26°30' W 131°30'1 0.4 21.0
2016-Dec-01 01:00N 26°30' W 131°29'0 0.0 21.1
2016-Dec-01 00:00N 26°30' W 131°29'1 0.8 21.1
2016-Nov-30 23:00N 26°31' W 131°28'1 0.6 21.1
2016-Nov-30 22:00N 26°31' W 131°28'1 0.1 21.1
2016-Nov-30 17:00N 26°31' W 131°28'1 0.7 21.0
2016-Nov-30 15:00N 26°32' W 131°28'0 0.0 21.1
2016-Nov-30 14:00N 26°32' W 131°28'1 0.6 21.1
2016-Nov-30 13:00N 26°31' W 131°28'1 0.6 21.1
2016-Nov-30 12:00N 26°32' W 131°28'1 0.2 21.1
2016-Nov-30 06:00N 26°33' W 131°27'1 0.6 21.1
2016-Nov-30 05:00N 26°32' W 131°27'0 0.0 21.1
2016-Nov-30 02:00N 26°32' W 131°27'0 0.0 21.1
2016-Nov-30 01:00N 26°32' W 131°27'0 0.0 21.1
2016-Nov-30 00:00N 26°32' W 131°27'1 0.6 21.1
2016-Nov-29 22:00N 26°33' W 131°26'1 0.3 21.1
2016-Nov-29 19:00N 26°34' W 131°26'0 0.0 21.1
2016-Nov-29 18:00N 26°34' W 131°26'0 0.0 21.1
2016-Nov-29 17:00N 26°34' W 131°26'1 0.5 21.1
2016-Nov-29 16:00N 26°34' W 131°26'1 0.8 21.1
2016-Nov-29 15:00N 26°34' W 131°26'1 0.6 21.1
2016-Nov-29 14:00N 26°34' W 131°26'0 0.0 21.1
2016-Nov-29 13:00N 26°34' W 131°26'1 1.2 21.1
2016-Nov-29 12:00N 26°34' W 131°28'1 0.2 21.1
2016-Nov-29 07:00N 26°35' W 131°26'0 0.0 21.1
2016-Nov-29 06:00N 26°35' W 131°26'1 0.8 21.1
2016-Nov-29 05:00N 26°34' W 131°26'1 0.5 21.1
2016-Nov-29 04:00N 26°34' W 131°26'1 0.4 21.1
2016-Nov-29 01:00N 26°35' W 131°25'1 0.8 21.1
2016-Nov-29 00:00N 26°34' W 131°26'0 0.0 21.1
2016-Nov-28 23:00N 26°34' W 131°26'2 1.2 21.1
2016-Nov-28 21:00N 26°36' W 131°24'0 0.0 21.1
2016-Nov-28 19:00N 26°36' W 131°24'0 0.0 21.1
2016-Nov-28 18:00N 26°36' W 131°24'0 0.0 21.1
2016-Nov-28 17:00N 26°36' W 131°24'0 0.0 21.1
2016-Nov-28 16:00N 26°36' W 131°24'0 0.0 21.1
2016-Nov-28 15:00N 26°36' W 131°24'0 0.0 21.1
2016-Nov-28 14:00N 26°36' W 131°24'0 0.0 21.1
2016-Nov-28 13:00N 26°36' W 131°24'0 0.0 21.1
2016-Nov-28 09:00N 26°36' W 131°24'0 0.0 21.1
2016-Nov-28 06:00N 26°36' W 131°24'0 0.0 21.1
2016-Nov-28 04:00N 26°36' W 131°24'   21.1

Dump ship's entire track history